Terminal Aerodrome Forecast
Issued by NWS

Current Version | Previous Version | Graphics & Text | Print | Product List | Glossary Off
Versions: 1 2 3 4 5 6 7 8 9 10 11 12 13 14 15 16 17

000
FTUS41 KPBZ 231141
TAFMGW
TAF
KMGW 231141Z 2312/2412 21008KT P6SM VCSH SCT010 OVC015
     FM231900 23015G26KT P6SM VCTS OVC035CB
     FM240000 23013G23KT 3SM SHRA VCTS OVC015CB=

USA.gov is the U.S. government's official web portal to all federal, state and local government web resources and services.